sensor_id;sensor_type;location;lat;lon;timestamp;P1;durP1;ratioP1;P2;durP2;ratioP2
46755;SDS011;32506;52.826;-1.192;2022-12-16T00:01:44;8.18;;;3.85;;
46755;SDS011;32506;52.826;-1.192;2022-12-16T00:04:10;6.50;;;3.50;;
46755;SDS011;32506;52.826;-1.192;2022-12-16T00:06:35;10.10;;;3.88;;
46755;SDS011;32506;52.826;-1.192;2022-12-16T00:09:00;7.30;;;3.17;;
46755;SDS011;32506;52.826;-1.192;2022-12-16T00:11:26;8.15;;;4.18;;
46755;SDS011;32506;52.826;-1.192;2022-12-16T00:13:52;8.68;;;4.13;;
46755;SDS011;32506;52.826;-1.192;2022-12-16T00:16:18;6.55;;;3.13;;
46755;SDS011;32506;52.826;-1.192;2022-12-16T00:18:45;9.70;;;4.15;;
46755;SDS011;32506;52.826;-1.192;2022-12-16T00:21:11;6.65;;;3.35;;
46755;SDS011;32506;52.826;-1.192;2022-12-16T00:23:37;8.55;;;3.80;;
46755;SDS011;32506;52.826;-1.192;2022-12-16T00:26:05;6.90;;;3.70;;
46755;SDS011;32506;52.826;-1.192;2022-12-16T00:28:31;8.88;;;3.30;;
46755;SDS011;32506;52.826;-1.192;2022-12-16T00:30:56;5.93;;;3.10;;
46755;SDS011;32506;52.826;-1.192;2022-12-16T00:33:23;6.75;;;4.20;;
46755;SDS011;32506;52.826;-1.192;2022-12-16T00:35:50;6.25;;;3.47;;
46755;SDS011;32506;52.826;-1.192;2022-12-16T00:38:16;8.15;;;3.20;;
46755;SDS011;32506;52.826;-1.192;2022-12-16T00:40:42;6.97;;;4.10;;
46755;SDS011;32506;52.826;-1.192;2022-12-16T00:43:07;7.13;;;3.70;;
46755;SDS011;32506;52.826;-1.192;2022-12-16T00:45:33;8.35;;;3.80;;
46755;SDS011;32506;52.826;-1.192;2022-12-16T00:47:58;7.00;;;3.67;;
46755;SDS011;32506;52.826;-1.192;2022-12-16T00:50:24;7.68;;;3.17;;
46755;SDS011;32506;52.826;-1.192;2022-12-16T00:52:49;9.23;;;3.83;;
46755;SDS011;32506;52.826;-1.192;2022-12-16T00:55:16;7.90;;;3.83;;
46755;SDS011;32506;52.826;-1.192;2022-12-16T00:57:42;7.60;;;3.88;;
46755;SDS011;32506;52.826;-1.192;2022-12-16T01:00:09;8.90;;;4.05;;
46755;SDS011;32506;52.826;-1.192;2022-12-16T01:02:43;6.07;;;3.22;;
46755;SDS011;32506;52.826;-1.192;2022-12-16T01:05:11;6.68;;;3.28;;
46755;SDS011;32506;52.826;-1.192;2022-12-16T01:07:38;6.95;;;3.53;;
46755;SDS011;32506;52.826;-1.192;2022-12-16T01:10:04;7.65;;;3.60;;
46755;SDS011;32506;52.826;-1.192;2022-12-16T01:12:31;7.47;;;3.90;;
46755;SDS011;32506;52.826;-1.192;2022-12-16T01:14:57;9.10;;;3.92;;
46755;SDS011;32506;52.826;-1.192;2022-12-16T01:17:23;7.88;;;3.90;;
46755;SDS011;32506;52.826;-1.192;2022-12-16T01:19:52;6.93;;;3.65;;
46755;SDS011;32506;52.826;-1.192;2022-12-16T01:22:18;9.60;;;4.18;;
46755;SDS011;32506;52.826;-1.192;2022-12-16T01:24:45;8.00;;;4.10;;
46755;SDS011;32506;52.826;-1.192;2022-12-16T01:27:11;7.00;;;3.70;;
46755;SDS011;32506;52.826;-1.192;2022-12-16T01:29:37;7.70;;;3.95;;
46755;SDS011;32506;52.826;-1.192;2022-12-16T01:32:03;6.88;;;3.80;;
46755;SDS011;32506;52.826;-1.192;2022-12-16T01:34:30;6.53;;;3.72;;
46755;SDS011;32506;52.826;-1.192;2022-12-16T01:36:56;5.85;;;3.03;;
46755;SDS011;32506;52.826;-1.192;2022-12-16T01:39:21;6.60;;;3.67;;
46755;SDS011;32506;52.826;-1.192;2022-12-16T01:41:47;9.38;;;4.10;;
46755;SDS011;32506;52.826;-1.192;2022-12-16T01:46:38;7.10;;;3.70;;
46755;SDS011;32506;52.826;-1.192;2022-12-16T01:49:08;8.52;;;4.05;;
46755;SDS011;32506;52.826;-1.192;2022-12-16T01:51:42;7.13;;;4.15;;
46755;SDS011;32506;52.826;-1.192;2022-12-16T01:54:20;5.50;;;3.63;;
46755;SDS011;32506;52.826;-1.192;2022-12-16T01:56:49;6.35;;;3.25;;
46755;SDS011;32506;52.826;-1.192;2022-12-16T01:59:18;9.23;;;3.97;;
46755;SDS011;32506;52.826;-1.192;2022-12-16T02:01:44;7.20;;;3.72;;
46755;SDS011;32506;52.826;-1.192;2022-12-16T02:04:09;8.13;;;4.75;;
46755;SDS011;32506;52.826;-1.192;2022-12-16T02:06:35;7.68;;;4.43;;
46755;SDS011;32506;52.826;-1.192;2022-12-16T02:09:02;9.45;;;4.47;;
46755;SDS011;32506;52.826;-1.192;2022-12-16T02:11:40;8.43;;;4.53;;
46755;SDS011;32506;52.826;-1.192;2022-12-16T02:25:16;7.70;;;4.43;;
46755;SDS011;32506;52.826;-1.192;2022-12-16T02:28:08;9.05;;;4.47;;
46755;SDS011;32506;52.826;-1.192;2022-12-16T02:36:21;9.60;;;4.28;;
46755;SDS011;32506;52.826;-1.192;2022-12-16T02:39:09;10.13;;;4.03;;
46755;SDS011;32506;52.826;-1.192;2022-12-16T02:44:14;8.23;;;3.70;;
46755;SDS011;32506;52.826;-1.192;2022-12-16T02:46:42;6.78;;;4.13;;
46755;SDS011;32506;52.826;-1.192;2022-12-16T02:51:42;8.82;;;4.38;;
46755;SDS011;32506;52.826;-1.192;2022-12-16T02:54:08;9.27;;;5.28;;
46755;SDS011;32506;52.826;-1.192;2022-12-16T03:07:18;7.38;;;4.32;;
46755;SDS011;32506;52.826;-1.192;2022-12-16T03:09:47;8.77;;;4.43;;
46755;SDS011;32506;52.826;-1.192;2022-12-16T03:12:16;6.03;;;4.15;;
46755;SDS011;32506;52.826;-1.192;2022-12-16T03:14:44;9.40;;;5.03;;
46755;SDS011;32506;52.826;-1.192;2022-12-16T03:17:13;8.65;;;4.68;;
46755;SDS011;32506;52.826;-1.192;2022-12-16T03:19:41;7.88;;;4.28;;
46755;SDS011;32506;52.826;-1.192;2022-12-16T03:22:13;9.48;;;4.65;;
46755;SDS011;32506;52.826;-1.192;2022-12-16T03:24:42;9.43;;;4.90;;
46755;SDS011;32506;52.826;-1.192;2022-12-16T03:32:20;9.88;;;4.88;;
46755;SDS011;32506;52.826;-1.192;2022-12-16T03:37:35;9.75;;;4.60;;
46755;SDS011;32506;52.826;-1.192;2022-12-16T03:40:03;8.38;;;4.35;;
46755;SDS011;32506;52.826;-1.192;2022-12-16T03:42:31;8.82;;;4.43;;
46755;SDS011;32506;52.826;-1.192;2022-12-16T03:44:58;9.50;;;4.70;;
46755;SDS011;32506;52.826;-1.192;2022-12-16T03:47:25;9.25;;;4.03;;
46755;SDS011;32506;52.826;-1.192;2022-12-16T03:49:52;10.18;;;4.55;;
46755;SDS011;32506;52.826;-1.192;2022-12-16T03:52:18;9.73;;;5.00;;
46755;SDS011;32506;52.826;-1.192;2022-12-16T03:54:43;7.97;;;5.07;;
46755;SDS011;32506;52.826;-1.192;2022-12-16T03:57:08;7.53;;;4.75;;
46755;SDS011;32506;52.826;-1.192;2022-12-16T03:59:34;9.43;;;4.40;;
46755;SDS011;32506;52.826;-1.192;2022-12-16T04:01:59;9.25;;;4.20;;
46755;SDS011;32506;52.826;-1.192;2022-12-16T04:04:25;9.35;;;4.70;;
46755;SDS011;32506;52.826;-1.192;2022-12-16T04:06:51;9.70;;;4.95;;
46755;SDS011;32506;52.826;-1.192;2022-12-16T04:09:36;9.02;;;4.72;;
46755;SDS011;32506;52.826;-1.192;2022-12-16T04:12:01;9.90;;;4.47;;
46755;SDS011;32506;52.826;-1.192;2022-12-16T04:14:45;7.50;;;4.47;;
46755;SDS011;32506;52.826;-1.192;2022-12-16T04:17:29;8.85;;;4.68;;
46755;SDS011;32506;52.826;-1.192;2022-12-16T04:20:14;8.32;;;4.90;;
46755;SDS011;32506;52.826;-1.192;2022-12-16T04:22:59;10.00;;;4.82;;
46755;SDS011;32506;52.826;-1.192;2022-12-16T04:25:43;8.73;;;4.90;;
46755;SDS011;32506;52.826;-1.192;2022-12-16T04:28:09;7.53;;;4.55;;
46755;SDS011;32506;52.826;-1.192;2022-12-16T04:30:35;7.30;;;4.30;;
46755;SDS011;32506;52.826;-1.192;2022-12-16T04:33:05;8.85;;;4.47;;
46755;SDS011;32506;52.826;-1.192;2022-12-16T04:35:52;8.15;;;4.32;;
46755;SDS011;32506;52.826;-1.192;2022-12-16T04:38:36;9.88;;;4.38;;
46755;SDS011;32506;52.826;-1.192;2022-12-16T04:41:20;8.93;;;5.53;;
46755;SDS011;32506;52.826;-1.192;2022-12-16T04:44:04;8.32;;;4.38;;
46755;SDS011;32506;52.826;-1.192;2022-12-16T04:46:48;6.65;;;3.72;;
46755;SDS011;32506;52.826;-1.192;2022-12-16T04:49:32;8.85;;;5.18;;
46755;SDS011;32506;52.826;-1.192;2022-12-16T04:52:16;6.32;;;4.03;;
46755;SDS011;32506;52.826;-1.192;2022-12-16T04:55:00;8.65;;;4.30;;
46755;SDS011;32506;52.826;-1.192;2022-12-16T04:57:48;7.55;;;4.47;;
46755;SDS011;32506;52.826;-1.192;2022-12-16T05:00:35;10.70;;;5.72;;
46755;SDS011;32506;52.826;-1.192;2022-12-16T05:03:19;11.35;;;5.07;;
46755;SDS011;32506;52.826;-1.192;2022-12-16T05:06:03;10.32;;;5.05;;
46755;SDS011;32506;52.826;-1.192;2022-12-16T05:08:48;7.18;;;4.18;;
46755;SDS011;32506;52.826;-1.192;2022-12-16T05:11:32;8.57;;;4.38;;
46755;SDS011;32506;52.826;-1.192;2022-12-16T05:14:16;6.90;;;4.00;;
46755;SDS011;32506;52.826;-1.192;2022-12-16T05:16:59;9.85;;;4.47;;
46755;SDS011;32506;52.826;-1.192;2022-12-16T05:19:43;8.30;;;4.78;;
46755;SDS011;32506;52.826;-1.192;2022-12-16T05:22:27;6.97;;;4.15;;
46755;SDS011;32506;52.826;-1.192;2022-12-16T05:25:11;7.53;;;4.45;;
46755;SDS011;32506;52.826;-1.192;2022-12-16T05:27:55;6.93;;;4.40;;
46755;SDS011;32506;52.826;-1.192;2022-12-16T05:30:39;7.82;;;4.38;;
46755;SDS011;32506;52.826;-1.192;2022-12-16T05:33:23;9.15;;;4.80;;
46755;SDS011;32506;52.826;-1.192;2022-12-16T05:36:07;10.85;;;4.40;;
46755;SDS011;32506;52.826;-1.192;2022-12-16T05:38:51;11.05;;;4.55;;
46755;SDS011;32506;52.826;-1.192;2022-12-16T05:41:35;11.70;;;5.30;;
46755;SDS011;32506;52.826;-1.192;2022-12-16T05:44:20;8.60;;;5.05;;
46755;SDS011;32506;52.826;-1.192;2022-12-16T05:47:04;9.20;;;4.70;;
46755;SDS011;32506;52.826;-1.192;2022-12-16T05:49:48;7.28;;;4.03;;
46755;SDS011;32506;52.826;-1.192;2022-12-16T05:52:32;9.50;;;4.68;;
46755;SDS011;32506;52.826;-1.192;2022-12-16T05:55:16;8.85;;;4.68;;
46755;SDS011;32506;52.826;-1.192;2022-12-16T05:57:59;7.50;;;4.07;;
46755;SDS011;32506;52.826;-1.192;2022-12-16T06:00:43;7.90;;;4.30;;
46755;SDS011;32506;52.826;-1.192;2022-12-16T06:03:27;9.88;;;5.20;;
46755;SDS011;32506;52.826;-1.192;2022-12-16T06:06:11;8.35;;;4.50;;
46755;SDS011;32506;52.826;-1.192;2022-12-16T06:08:55;8.88;;;5.18;;
46755;SDS011;32506;52.826;-1.192;2022-12-16T06:11:39;8.82;;;4.85;;
46755;SDS011;32506;52.826;-1.192;2022-12-16T06:14:23;7.70;;;4.18;;
46755;SDS011;32506;52.826;-1.192;2022-12-16T06:17:07;8.55;;;3.70;;
46755;SDS011;32506;52.826;-1.192;2022-12-16T06:19:51;9.02;;;4.60;;
46755;SDS011;32506;52.826;-1.192;2022-12-16T06:22:35;7.70;;;4.05;;
46755;SDS011;32506;52.826;-1.192;2022-12-16T06:25:19;8.43;;;4.25;;
46755;SDS011;32506;52.826;-1.192;2022-12-16T06:28:03;7.97;;;4.65;;
46755;SDS011;32506;52.826;-1.192;2022-12-16T06:30:47;6.13;;;3.47;;
46755;SDS011;32506;52.826;-1.192;2022-12-16T06:33:31;6.60;;;3.88;;
46755;SDS011;32506;52.826;-1.192;2022-12-16T06:36:15;9.75;;;4.35;;
46755;SDS011;32506;52.826;-1.192;2022-12-16T06:38:59;7.50;;;4.25;;
46755;SDS011;32506;52.826;-1.192;2022-12-16T06:41:43;6.85;;;4.10;;
46755;SDS011;32506;52.826;-1.192;2022-12-16T06:44:27;8.23;;;4.25;;
46755;SDS011;32506;52.826;-1.192;2022-12-16T06:47:10;7.28;;;4.25;;
46755;SDS011;32506;52.826;-1.192;2022-12-16T06:49:54;9.38;;;4.20;;
46755;SDS011;32506;52.826;-1.192;2022-12-16T06:52:39;8.23;;;4.90;;
46755;SDS011;32506;52.826;-1.192;2022-12-16T06:55:25;8.60;;;4.15;;
46755;SDS011;32506;52.826;-1.192;2022-12-16T06:58:10;10.02;;;4.43;;
46755;SDS011;32506;52.826;-1.192;2022-12-16T07:00:54;7.15;;;4.32;;
46755;SDS011;32506;52.826;-1.192;2022-12-16T07:03:38;9.35;;;4.32;;
46755;SDS011;32506;52.826;-1.192;2022-12-16T07:06:21;6.82;;;3.97;;
46755;SDS011;32506;52.826;-1.192;2022-12-16T07:09:07;7.68;;;3.75;;
46755;SDS011;32506;52.826;-1.192;2022-12-16T07:11:51;6.70;;;4.45;;
46755;SDS011;32506;52.826;-1.192;2022-12-16T07:14:35;8.35;;;4.30;;
46755;SDS011;32506;52.826;-1.192;2022-12-16T07:17:19;7.60;;;3.95;;
46755;SDS011;32506;52.826;-1.192;2022-12-16T07:20:03;8.93;;;4.60;;
46755;SDS011;32506;52.826;-1.192;2022-12-16T07:22:48;8.63;;;5.00;;
46755;SDS011;32506;52.826;-1.192;2022-12-16T07:25:31;7.25;;;4.55;;
46755;SDS011;32506;52.826;-1.192;2022-12-16T07:28:15;9.55;;;4.63;;
46755;SDS011;32506;52.826;-1.192;2022-12-16T07:30:59;9.40;;;4.50;;
46755;SDS011;32506;52.826;-1.192;2022-12-16T07:33:43;8.27;;;4.35;;
46755;SDS011;32506;52.826;-1.192;2022-12-16T07:36:27;11.63;;;5.53;;
46755;SDS011;32506;52.826;-1.192;2022-12-16T07:39:11;9.05;;;4.78;;
46755;SDS011;32506;52.826;-1.192;2022-12-16T07:41:55;8.75;;;4.72;;
46755;SDS011;32506;52.826;-1.192;2022-12-16T07:44:39;8.77;;;4.97;;
46755;SDS011;32506;52.826;-1.192;2022-12-16T07:47:23;10.05;;;5.10;;
46755;SDS011;32506;52.826;-1.192;2022-12-16T07:50:07;6.85;;;3.88;;
46755;SDS011;32506;52.826;-1.192;2022-12-16T07:52:58;8.85;;;4.72;;
46755;SDS011;32506;52.826;-1.192;2022-12-16T07:55:43;9.18;;;4.43;;
46755;SDS011;32506;52.826;-1.192;2022-12-16T07:58:28;8.65;;;4.72;;
46755;SDS011;32506;52.826;-1.192;2022-12-16T08:01:13;8.27;;;4.57;;
46755;SDS011;32506;52.826;-1.192;2022-12-16T08:03:57;10.18;;;4.50;;
46755;SDS011;32506;52.826;-1.192;2022-12-16T08:06:41;12.23;;;5.28;;
46755;SDS011;32506;52.826;-1.192;2022-12-16T08:09:25;10.00;;;5.05;;
46755;SDS011;32506;52.826;-1.192;2022-12-16T08:12:09;8.43;;;5.05;;
46755;SDS011;32506;52.826;-1.192;2022-12-16T08:14:53;8.05;;;4.18;;
46755;SDS011;32506;52.826;-1.192;2022-12-16T08:17:37;10.05;;;4.80;;
46755;SDS011;32506;52.826;-1.192;2022-12-16T08:20:21;7.90;;;4.57;;
46755;SDS011;32506;52.826;-1.192;2022-12-16T08:23:05;10.63;;;5.50;;
46755;SDS011;32506;52.826;-1.192;2022-12-16T08:25:49;8.18;;;4.47;;
46755;SDS011;32506;52.826;-1.192;2022-12-16T08:28:33;9.98;;;4.97;;
46755;SDS011;32506;52.826;-1.192;2022-12-16T08:31:17;9.80;;;5.05;;
46755;SDS011;32506;52.826;-1.192;2022-12-16T08:34:01;8.90;;;4.30;;
46755;SDS011;32506;52.826;-1.192;2022-12-16T08:36:45;9.43;;;4.90;;
46755;SDS011;32506;52.826;-1.192;2022-12-16T08:39:29;12.75;;;5.15;;
46755;SDS011;32506;52.826;-1.192;2022-12-16T08:42:13;7.95;;;4.93;;
46755;SDS011;32506;52.826;-1.192;2022-12-16T08:44:57;9.70;;;5.75;;
46755;SDS011;32506;52.826;-1.192;2022-12-16T08:47:41;9.18;;;4.82;;
46755;SDS011;32506;52.826;-1.192;2022-12-16T08:50:25;9.35;;;4.97;;
46755;SDS011;32506;52.826;-1.192;2022-12-16T08:53:09;9.45;;;5.25;;
46755;SDS011;32506;52.826;-1.192;2022-12-16T08:55:53;9.57;;;5.00;;
46755;SDS011;32506;52.826;-1.192;2022-12-16T08:58:36;10.00;;;4.80;;
46755;SDS011;32506;52.826;-1.192;2022-12-16T09:01:20;11.27;;;5.22;;
46755;SDS011;32506;52.826;-1.192;2022-12-16T09:04:04;9.30;;;4.82;;
46755;SDS011;32506;52.826;-1.192;2022-12-16T09:06:48;8.85;;;4.55;;
46755;SDS011;32506;52.826;-1.192;2022-12-16T09:09:32;9.48;;;5.07;;
46755;SDS011;32506;52.826;-1.192;2022-12-16T09:12:16;9.50;;;5.30;;
46755;SDS011;32506;52.826;-1.192;2022-12-16T09:15:00;12.98;;;5.35;;
46755;SDS011;32506;52.826;-1.192;2022-12-16T09:17:44;9.90;;;5.15;;
46755;SDS011;32506;52.826;-1.192;2022-12-16T09:20:28;10.73;;;5.65;;
46755;SDS011;32506;52.826;-1.192;2022-12-16T09:23:12;12.63;;;5.88;;
46755;SDS011;32506;52.826;-1.192;2022-12-16T09:25:56;11.13;;;6.10;;
46755;SDS011;32506;52.826;-1.192;2022-12-16T09:28:40;10.02;;;5.45;;
46755;SDS011;32506;52.826;-1.192;2022-12-16T09:31:24;8.77;;;5.40;;
46755;SDS011;32506;52.826;-1.192;2022-12-16T09:34:08;11.20;;;6.15;;
46755;SDS011;32506;52.826;-1.192;2022-12-16T09:36:52;14.70;;;6.25;;
46755;SDS011;32506;52.826;-1.192;2022-12-16T09:39:36;11.85;;;5.63;;
46755;SDS011;32506;52.826;-1.192;2022-12-16T09:51:33;9.43;;;6.03;;
46755;SDS011;32506;52.826;-1.192;2022-12-16T09:54:20;9.32;;;4.68;;
46755;SDS011;32506;52.826;-1.192;2022-12-16T09:57:07;10.00;;;5.00;;
46755;SDS011;32506;52.826;-1.192;2022-12-16T09:59:53;8.23;;;4.20;;
46755;SDS011;32506;52.826;-1.192;2022-12-16T10:02:41;10.95;;;5.85;;
46755;SDS011;32506;52.826;-1.192;2022-12-16T10:05:29;8.70;;;4.60;;
46755;SDS011;32506;52.826;-1.192;2022-12-16T10:08:35;13.73;;;5.22;;
46755;SDS011;32506;52.826;-1.192;2022-12-16T10:15:02;8.18;;;4.32;;
46755;SDS011;32506;52.826;-1.192;2022-12-16T10:17:52;9.40;;;4.20;;
46755;SDS011;32506;52.826;-1.192;2022-12-16T10:26:22;9.27;;;5.35;;
46755;SDS011;32506;52.826;-1.192;2022-12-16T10:29:23;8.50;;;4.97;;
46755;SDS011;32506;52.826;-1.192;2022-12-16T10:34:59;11.65;;;6.38;;
46755;SDS011;32506;52.826;-1.192;2022-12-16T10:37:45;9.93;;;5.72;;
46755;SDS011;32506;52.826;-1.192;2022-12-16T10:40:32;13.23;;;5.80;;
46755;SDS011;32506;52.826;-1.192;2022-12-16T10:43:21;11.02;;;6.25;;
46755;SDS011;32506;52.826;-1.192;2022-12-16T10:46:18;11.52;;;5.95;;
46755;SDS011;32506;52.826;-1.192;2022-12-16T10:49:07;10.05;;;5.63;;
46755;SDS011;32506;52.826;-1.192;2022-12-16T10:51:56;9.60;;;6.38;;
46755;SDS011;32506;52.826;-1.192;2022-12-16T10:54:44;11.60;;;5.60;;
46755;SDS011;32506;52.826;-1.192;2022-12-16T11:00:49;8.85;;;5.60;;
46755;SDS011;32506;52.826;-1.192;2022-12-16T11:03:35;10.82;;;5.88;;
46755;SDS011;32506;52.826;-1.192;2022-12-16T11:06:25;12.93;;;7.07;;
46755;SDS011;32506;52.826;-1.192;2022-12-16T11:15:16;11.02;;;6.75;;
46755;SDS011;32506;52.826;-1.192;2022-12-16T11:18:08;13.38;;;7.00;;
46755;SDS011;32506;52.826;-1.192;2022-12-16T11:27:01;12.00;;;7.30;;
46755;SDS011;32506;52.826;-1.192;2022-12-16T11:32:42;12.75;;;7.38;;
46755;SDS011;32506;52.826;-1.192;2022-12-16T11:35:31;13.48;;;7.63;;
46755;SDS011;32506;52.826;-1.192;2022-12-16T11:38:24;11.30;;;7.18;;
46755;SDS011;32506;52.826;-1.192;2022-12-16T11:41:33;11.88;;;7.15;;
46755;SDS011;32506;52.826;-1.192;2022-12-16T11:44:38;13.73;;;7.55;;
46755;SDS011;32506;52.826;-1.192;2022-12-16T11:50:22;11.40;;;7.13;;
46755;SDS011;32506;52.826;-1.192;2022-12-16T11:53:24;11.13;;;6.43;;
46755;SDS011;32506;52.826;-1.192;2022-12-16T11:56:09;10.35;;;6.40;;
46755;SDS011;32506;52.826;-1.192;2022-12-16T11:59:02;12.43;;;6.45;;
46755;SDS011;32506;52.826;-1.192;2022-12-16T12:01:57;9.87;;;6.37;;
46755;SDS011;32506;52.826;-1.192;2022-12-16T12:04:43;10.23;;;6.28;;
46755;SDS011;32506;52.826;-1.192;2022-12-16T12:07:35;11.95;;;6.43;;
46755;SDS011;32506;52.826;-1.192;2022-12-16T12:10:52;12.25;;;6.18;;
46755;SDS011;32506;52.826;-1.192;2022-12-16T12:23:09;10.20;;;5.82;;
46755;SDS011;32506;52.826;-1.192;2022-12-16T12:37:38;10.70;;;6.20;;
46755;SDS011;32506;52.826;-1.192;2022-12-16T12:43:49;9.20;;;5.38;;
46755;SDS011;32506;52.826;-1.192;2022-12-16T12:46:50;10.32;;;6.63;;
46755;SDS011;32506;52.826;-1.192;2022-12-16T12:49:45;11.75;;;6.03;;
46755;SDS011;32506;52.826;-1.192;2022-12-16T12:59:19;12.00;;;6.60;;
46755;SDS011;32506;52.826;-1.192;2022-12-16T13:02:11;10.23;;;6.38;;
46755;SDS011;32506;52.826;-1.192;2022-12-16T13:04:59;11.13;;;5.78;;
46755;SDS011;32506;52.826;-1.192;2022-12-16T13:07:43;10.38;;;6.15;;
46755;SDS011;32506;52.826;-1.192;2022-12-16T13:10:32;15.88;;;6.65;;
46755;SDS011;32506;52.826;-1.192;2022-12-16T13:25:25;13.23;;;7.05;;
46755;SDS011;32506;52.826;-1.192;2022-12-16T13:28:25;11.63;;;6.80;;
46755;SDS011;32506;52.826;-1.192;2022-12-16T13:31:13;9.85;;;6.82;;
46755;SDS011;32506;52.826;-1.192;2022-12-16T13:34:20;13.90;;;6.95;;
46755;SDS011;32506;52.826;-1.192;2022-12-16T13:37:02;10.05;;;6.32;;
46755;SDS011;32506;52.826;-1.192;2022-12-16T13:40:22;10.60;;;6.72;;
46755;SDS011;32506;52.826;-1.192;2022-12-16T13:44:06;11.10;;;6.20;;
46755;SDS011;32506;52.826;-1.192;2022-12-16T13:46:45;9.17;;;6.23;;
46755;SDS011;32506;52.826;-1.192;2022-12-16T13:52:22;12.02;;;6.47;;
46755;SDS011;32506;52.826;-1.192;2022-12-16T13:55:13;11.15;;;6.15;;
46755;SDS011;32506;52.826;-1.192;2022-12-16T14:00:53;12.48;;;6.47;;
46755;SDS011;32506;52.826;-1.192;2022-12-16T14:03:47;15.23;;;7.50;;
46755;SDS011;32506;52.826;-1.192;2022-12-16T14:06:33;10.20;;;6.88;;
46755;SDS011;32506;52.826;-1.192;2022-12-16T14:15:40;12.18;;;6.50;;
46755;SDS011;32506;52.826;-1.192;2022-12-16T14:27:57;12.05;;;6.88;;
46755;SDS011;32506;52.826;-1.192;2022-12-16T14:30:43;12.73;;;6.82;;
46755;SDS011;32506;52.826;-1.192;2022-12-16T14:33:28;11.05;;;7.35;;
46755;SDS011;32506;52.826;-1.192;2022-12-16T14:36:23;11.50;;;6.13;;
46755;SDS011;32506;52.826;-1.192;2022-12-16T14:39:19;14.13;;;7.15;;
46755;SDS011;32506;52.826;-1.192;2022-12-16T14:48:01;10.35;;;6.72;;
46755;SDS011;32506;52.826;-1.192;2022-12-16T14:51:19;12.30;;;6.93;;
46755;SDS011;32506;52.826;-1.192;2022-12-16T14:54:13;10.68;;;6.68;;
46755;SDS011;32506;52.826;-1.192;2022-12-16T14:57:02;11.05;;;6.45;;
46755;SDS011;32506;52.826;-1.192;2022-12-16T14:59:46;11.60;;;6.38;;
46755;SDS011;32506;52.826;-1.192;2022-12-16T15:02:32;10.77;;;6.22;;
46755;SDS011;32506;52.826;-1.192;2022-12-16T15:05:27;10.25;;;5.80;;
46755;SDS011;32506;52.826;-1.192;2022-12-16T15:08:15;13.88;;;5.80;;
46755;SDS011;32506;52.826;-1.192;2022-12-16T15:11:00;10.40;;;5.88;;
46755;SDS011;32506;52.826;-1.192;2022-12-16T15:13:46;9.93;;;6.13;;
46755;SDS011;32506;52.826;-1.192;2022-12-16T15:16:36;10.30;;;5.32;;
46755;SDS011;32506;52.826;-1.192;2022-12-16T15:19:21;7.30;;;4.72;;
46755;SDS011;32506;52.826;-1.192;2022-12-16T15:22:11;9.57;;;4.95;;
46755;SDS011;32506;52.826;-1.192;2022-12-16T15:24:57;10.02;;;5.65;;
46755;SDS011;32506;52.826;-1.192;2022-12-16T15:27:41;10.10;;;5.75;;
46755;SDS011;32506;52.826;-1.192;2022-12-16T15:33:16;9.40;;;5.85;;
46755;SDS011;32506;52.826;-1.192;2022-12-16T15:36:01;11.75;;;5.25;;
46755;SDS011;32506;52.826;-1.192;2022-12-16T15:38:47;11.55;;;5.60;;
46755;SDS011;32506;52.826;-1.192;2022-12-16T15:41:32;11.70;;;7.03;;
46755;SDS011;32506;52.826;-1.192;2022-12-16T15:44:25;11.10;;;6.00;;
46755;SDS011;32506;52.826;-1.192;2022-12-16T15:47:47;11.57;;;6.50;;
46755;SDS011;32506;52.826;-1.192;2022-12-16T15:50:22;10.25;;;5.80;;
46755;SDS011;32506;52.826;-1.192;2022-12-16T15:56:54;10.90;;;6.35;;
46755;SDS011;32506;52.826;-1.192;2022-12-16T15:59:28;10.80;;;6.78;;
46755;SDS011;32506;52.826;-1.192;2022-12-16T16:02:16;11.13;;;6.43;;
46755;SDS011;32506;52.826;-1.192;2022-12-16T16:05:13;11.63;;;6.82;;
46755;SDS011;32506;52.826;-1.192;2022-12-16T16:08:01;10.27;;;6.43;;
46755;SDS011;32506;52.826;-1.192;2022-12-16T16:10:44;11.60;;;7.15;;
46755;SDS011;32506;52.826;-1.192;2022-12-16T16:13:28;12.73;;;6.93;;
46755;SDS011;32506;52.826;-1.192;2022-12-16T16:16:12;12.88;;;6.60;;
46755;SDS011;32506;52.826;-1.192;2022-12-16T16:18:57;10.10;;;6.97;;
46755;SDS011;32506;52.826;-1.192;2022-12-16T16:21:42;11.95;;;7.25;;
46755;SDS011;32506;52.826;-1.192;2022-12-16T16:24:26;13.55;;;7.10;;
46755;SDS011;32506;52.826;-1.192;2022-12-16T16:27:10;11.38;;;6.18;;
46755;SDS011;32506;52.826;-1.192;2022-12-16T16:29:56;11.73;;;6.75;;
46755;SDS011;32506;52.826;-1.192;2022-12-16T16:32:40;12.45;;;7.00;;
46755;SDS011;32506;52.826;-1.192;2022-12-16T16:35:24;10.90;;;6.10;;
46755;SDS011;32506;52.826;-1.192;2022-12-16T16:38:09;13.95;;;7.40;;
46755;SDS011;32506;52.826;-1.192;2022-12-16T16:40:53;16.52;;;7.65;;
46755;SDS011;32506;52.826;-1.192;2022-12-16T16:43:38;10.85;;;7.68;;
46755;SDS011;32506;52.826;-1.192;2022-12-16T16:49:31;9.27;;;6.35;;
46755;SDS011;32506;52.826;-1.192;2022-12-16T16:52:19;10.70;;;6.68;;
46755;SDS011;32506;52.826;-1.192;2022-12-16T16:55:05;12.23;;;6.45;;
46755;SDS011;32506;52.826;-1.192;2022-12-16T16:57:50;12.45;;;7.75;;
46755;SDS011;32506;52.826;-1.192;2022-12-16T17:00:34;13.27;;;7.20;;
46755;SDS011;32506;52.826;-1.192;2022-12-16T17:03:18;14.70;;;7.38;;
46755;SDS011;32506;52.826;-1.192;2022-12-16T17:06:02;15.35;;;8.48;;
46755;SDS011;32506;52.826;-1.192;2022-12-16T17:08:47;13.88;;;7.88;;
46755;SDS011;32506;52.826;-1.192;2022-12-16T17:11:31;13.23;;;7.22;;
46755;SDS011;32506;52.826;-1.192;2022-12-16T17:14:16;13.30;;;7.75;;
46755;SDS011;32506;52.826;-1.192;2022-12-16T17:17:02;12.63;;;7.45;;
46755;SDS011;32506;52.826;-1.192;2022-12-16T17:19:46;13.38;;;8.02;;
46755;SDS011;32506;52.826;-1.192;2022-12-16T17:22:30;14.00;;;7.03;;
46755;SDS011;32506;52.826;-1.192;2022-12-16T17:25:14;10.75;;;7.57;;
46755;SDS011;32506;52.826;-1.192;2022-12-16T17:27:59;12.65;;;7.05;;
46755;SDS011;32506;52.826;-1.192;2022-12-16T17:30:43;13.63;;;8.00;;
46755;SDS011;32506;52.826;-1.192;2022-12-16T17:33:27;12.68;;;7.45;;
46755;SDS011;32506;52.826;-1.192;2022-12-16T17:36:11;13.50;;;7.45;;
46755;SDS011;32506;52.826;-1.192;2022-12-16T17:38:57;10.63;;;6.47;;
46755;SDS011;32506;52.826;-1.192;2022-12-16T17:41:41;12.98;;;7.45;;
46755;SDS011;32506;52.826;-1.192;2022-12-16T17:44:25;13.07;;;6.65;;
46755;SDS011;32506;52.826;-1.192;2022-12-16T17:47:09;14.65;;;7.90;;
46755;SDS011;32506;52.826;-1.192;2022-12-16T17:49:53;11.38;;;5.95;;
46755;SDS011;32506;52.826;-1.192;2022-12-16T17:52:37;11.27;;;6.70;;
46755;SDS011;32506;52.826;-1.192;2022-12-16T17:55:21;12.45;;;6.95;;
46755;SDS011;32506;52.826;-1.192;2022-12-16T17:58:06;11.82;;;6.32;;
46755;SDS011;32506;52.826;-1.192;2022-12-16T18:00:50;10.45;;;6.32;;
46755;SDS011;32506;52.826;-1.192;2022-12-16T18:03:34;11.45;;;6.50;;
46755;SDS011;32506;52.826;-1.192;2022-12-16T18:06:17;10.05;;;6.15;;
46755;SDS011;32506;52.826;-1.192;2022-12-16T18:09:01;10.85;;;6.40;;
46755;SDS011;32506;52.826;-1.192;2022-12-16T18:11:45;12.18;;;7.45;;
46755;SDS011;32506;52.826;-1.192;2022-12-16T18:14:29;11.55;;;6.22;;
46755;SDS011;32506;52.826;-1.192;2022-12-16T18:17:13;10.73;;;5.88;;
46755;SDS011;32506;52.826;-1.192;2022-12-16T18:19:57;10.68;;;5.40;;
46755;SDS011;32506;52.826;-1.192;2022-12-16T18:22:41;13.63;;;6.82;;
46755;SDS011;32506;52.826;-1.192;2022-12-16T18:25:25;11.60;;;5.70;;
46755;SDS011;32506;52.826;-1.192;2022-12-16T18:28:09;13.27;;;6.75;;
46755;SDS011;32506;52.826;-1.192;2022-12-16T18:30:53;10.05;;;5.47;;
46755;SDS011;32506;52.826;-1.192;2022-12-16T18:33:37;11.38;;;7.05;;
46755;SDS011;32506;52.826;-1.192;2022-12-16T18:36:21;10.73;;;5.43;;
46755;SDS011;32506;52.826;-1.192;2022-12-16T18:39:05;14.15;;;6.47;;
46755;SDS011;32506;52.826;-1.192;2022-12-16T18:41:49;11.20;;;5.90;;